KSFB

Orlando Sanford International Airport

Orlando, Florida, USA
KSFB 202341Z 2100/2124 01012KT P6SM BKN010 BKN040 FM210900 06009KT P6SM SCT010 BKN020 FM211400 08012G18KT P6SM VCSH SCT020 BKN035 FM212000 09016G25KT P6SM VCSH BKN025 OVC050
Issued Valid From Valid To
Apr-20 @ 23:41 UTC
(4 hours ago)
Apr-21 @ 00:00 UTC
(4 hours ago)
Apr-22 @ 00:00 UTC
(in 20 hours)
Apr-21 @ 00:00 to Apr-21 @ 09:00
KSFB 202341Z 2100/2124 01012KT P6SM BKN010 BKN040
Wind Visibility Clouds
10° at 12 knots Greater than 6 miles
  • Broken at 1,000' AGL
  • Broken at 4,000' AGL
From Apr-21 @ 09:00 to Apr-21 @ 14:00
FM210900 06009KT P6SM SCT010 BKN020
Wind Visibility Clouds
60° at 9 knots Greater than 6 miles
  • Scattered at 1,000' AGL
  • Broken at 2,000' AGL
From Apr-21 @ 14:00 to Apr-21 @ 20:00
FM211400 08012G18KT P6SM VCSH SCT020 BKN035
Wind Visibility Clouds
80° at 12 knots
 Gusting to 18 knots
Greater than 6 miles
  • Scattered at 2,000' AGL
  • Broken at 3,500' AGL
From Apr-21 @ 20:00 to Apr-22 @ 00:00
FM212000 09016G25KT P6SM VCSH BKN025 OVC050
Wind Visibility Clouds
90° at 16 knots
 Gusting to 25 knots
Greater than 6 miles
  • Broken at 2,500' AGL
  • Overcast at 5,000' AGL
KSFB 202341Z 2100/2124 01012KT P6SM BKN010 BKN040 FM210900 06009KT P6SM SCT010 BKN020 FM211400 08012G18KT P6SM VCSH SCT020 BKN035 FM212000 09016G25KT P6SM VCSH BKN025 OVC050
Issued Apr-20 @ 23:41 UTC
(4 hours ago)
Valid From Apr-21 @ 00:00 UTC
(4 hours ago)
Valid To Apr-22 @ 00:00 UTC
(in 20 hours)
Apr-21 @ 00:00 - Apr-21 @ 09:00
Wind Visibility
10° at 12 knots Greater than 6 miles
Clouds
  • Broken at 1,000' AGL
  • Broken at 4,000' AGL
From Apr-21 @ 09:00 - Apr-21 @ 14:00
Wind Visibility
60° at 9 knots Greater than 6 miles
Clouds
  • Scattered at 1,000' AGL
  • Broken at 2,000' AGL
From Apr-21 @ 14:00 - Apr-21 @ 20:00
Wind Visibility
80° at 12 knots
 Gusting to 18 knots
Greater than 6 miles
Clouds
  • Scattered at 2,000' AGL
  • Broken at 3,500' AGL
From Apr-21 @ 20:00 - Apr-22 @ 00:00
Wind Visibility
90° at 16 knots
 Gusting to 25 knots
Greater than 6 miles
Clouds
  • Broken at 2,500' AGL
  • Overcast at 5,000' AGL